LFOV 140730Z AUTO 21009KT CAVOK 07/05 Q1001

ElémentsDécodage
LFOV Station météo située sur l'aérodrome de LAVAL Entrammes
140730Z émis le 14 du mois à 07h30 UTC
AUTO Bulletin édité par un automate
21009KT vent du 210°, 09 noeuds
CAVOK Ceiling And Visibility OK
- Visibilité de 10 Km ou plus
- Pas de nuage au-dessous de 1500m ou au-dessous de l'altitude minimale du secteur la plus élevée (si>1500m) et absence de CB
- pas de temps présent significatif
07/05 température 07°C, point de rosée 05°C
 soit une humidité relative de 87%
Q1001 la pression au niveau de la mer (QNH) est de 1001 hPa